Time;durP1;ratioP1;P1;durP2;ratioP2;P2;SDS_P1;SDS_P2;PMS_P1;PMS_P2;Temp;Humidity;BMP_temperature;BMP_pressure;BME280_temperature;BME280_humidity;BME280_pressure;Samples;Min_cycle;Max_cycle;Signal;HPM_P1;HPM_P2
2021/08/20 00:01:16;;;;;;;3.60;3.30;;;16.10;76.10;;;15.98;62.11;95026.72;5035201;28;20326;-77
2021/08/20 00:03:44;;;;;;;3.33;3.03;;;16.20;76.20;;;16.06;61.68;95033.53;5017041;28;20204;-77
2021/08/20 00:06:11;;;;;;;3.42;2.90;;;16.10;76.00;;;16.07;61.30;95029.88;5035002;28;20227;-77
2021/08/20 00:08:38;;;;;;;4.07;3.38;;;16.20;75.90;;;16.07;61.67;95021.13;5035295;28;20684;-77
2021/08/20 00:11:07;;;;;;;3.30;3.00;;;16.20;76.00;;;16.11;61.62;95027.59;5018814;28;20218;-77
2021/08/20 00:13:34;;;;;;;3.58;2.90;;;16.20;75.80;;;16.08;61.83;95020.09;5014717;28;20202;-77
2021/08/20 00:16:02;;;;;;;3.30;3.00;;;16.20;75.70;;;16.13;61.06;95031.63;5029038;28;20310;-76
2021/08/20 00:18:29;;;;;;;3.15;2.80;;;16.30;75.70;;;16.11;61.04;95019.66;5015837;28;20211;-77
2021/08/20 00:20:58;;;;;;;5.65;2.63;;;16.30;75.40;;;16.09;60.57;95024.38;5015363;28;20232;-77
2021/08/20 00:23:25;;;;;;;3.47;2.80;;;16.30;75.40;;;16.11;60.56;95023.13;5037856;28;20187;-77
2021/08/20 00:25:53;;;;;;;2.40;2.20;;;16.30;75.30;;;16.11;60.54;95030.22;5042400;28;20221;-77
2021/08/20 00:28:20;;;;;;;2.53;2.33;;;16.30;75.30;;;16.13;60.45;95022.88;5034783;28;20193;-77
2021/08/20 00:30:47;;;;;;;3.70;2.28;;;16.30;75.30;;;16.11;60.53;95024.94;5034523;28;20269;-77
2021/08/20 00:33:15;;;;;;;3.75;2.30;;;16.30;75.30;;;16.18;60.63;95023.00;5034657;28;20188;-77
2021/08/20 00:35:44;;;;;;;2.60;2.40;;;16.30;75.40;;;16.22;60.37;95021.56;5042664;28;20219;-77
2021/08/20 00:38:11;;;;;;;2.60;2.40;;;16.30;75.30;;;16.27;60.57;95024.31;5015013;28;20203;-77
2021/08/20 00:40:39;;;;;;;2.47;2.28;;;16.30;75.40;;;16.30;60.53;95021.22;5031064;28;20303;-77
2021/08/20 00:43:08;;;;;;;2.85;2.50;;;16.30;75.50;;;16.37;60.19;95010.53;5014803;28;20298;-77
2021/08/20 00:45:36;;;;;;;2.85;2.58;;;16.40;75.60;;;16.42;60.11;95020.47;5015676;28;20250;-78
2021/08/20 00:48:04;;;;;;;2.90;2.60;;;16.50;75.60;;;16.46;60.04;95013.69;5033785;28;20544;-77
2021/08/20 00:50:32;;;;;;;2.92;2.50;;;16.50;75.60;;;16.51;60.65;95018.28;5050861;28;20250;-77
2021/08/20 00:53:00;;;;;;;2.58;2.38;;;16.50;75.50;;;16.55;60.27;95016.81;5034654;28;20191;-78
2021/08/20 00:55:27;;;;;;;3.33;2.80;;;16.60;75.50;;;16.59;60.48;95010.81;5035326;28;20248;-78
2021/08/20 00:57:54;;;;;;;3.00;2.70;;;16.60;75.60;;;16.60;60.14;95007.16;5031517;28;20279;-78
2021/08/20 01:00:22;;;;;;;3.80;2.58;;;16.70;75.60;;;16.67;60.02;95012.34;5030825;28;20266;-77
2021/08/20 01:02:49;;;;;;;2.38;2.17;;;16.70;75.60;;;16.70;60.01;95005.78;5031560;28;20319;-78
2021/08/20 01:05:19;;;;;;;2.70;2.50;;;16.70;75.70;;;16.75;60.20;95006.72;5026839;28;20218;-77
2021/08/20 01:07:48;;;;;;;3.55;2.58;;;16.70;75.70;;;16.78;59.88;95010.75;5018689;28;20299;-78
2021/08/20 01:10:15;;;;;;;3.80;2.33;;;16.80;75.80;;;16.81;60.49;95000.50;5051608;28;20211;-78
2021/08/20 01:12:45;;;;;;;2.97;2.58;;;16.90;75.80;;;16.85;59.97;95002.72;5020546;28;20650;-78
2021/08/20 01:15:12;;;;;;;3.20;2.90;;;16.90;75.80;;;16.88;60.60;95004.88;5018041;28;20563;-77
2021/08/20 01:17:44;;;;;;;3.10;2.67;;;16.90;75.90;;;16.90;60.59;95002.81;5032768;28;20200;-78
2021/08/20 01:20:12;;;;;;;2.88;2.58;;;17.00;75.90;;;16.96;60.05;95000.06;5034928;28;20298;-78
2021/08/20 01:22:43;;;;;;;2.30;2.03;;;16.90;76.00;;;16.99;60.47;94998.84;5025702;28;20247;-78
2021/08/20 01:25:15;;;;;;;2.63;2.42;;;17.00;76.30;;;17.01;60.31;94999.38;5015248;28;20280;-78
2021/08/20 01:27:42;;;;;;;2.88;2.58;;;17.00;76.00;;;17.06;60.58;94988.91;5018222;28;20199;-78
2021/08/20 01:30:12;;;;;;;2.53;2.33;;;17.00;76.00;;;17.07;60.45;94989.72;5002651;28;20234;-78
2021/08/20 01:32:40;;;;;;;3.00;2.53;;;17.10;76.10;;;17.11;60.48;94994.34;5034862;28;20211;-78
2021/08/20 01:35:08;;;;;;;3.30;2.25;;;17.10;76.10;;;17.11;60.52;94985.56;5034387;28;20208;-78
2021/08/20 01:37:36;;;;;;;2.83;2.47;;;17.10;76.10;;;17.14;60.35;94985.13;5034386;28;20629;-78
2021/08/20 01:40:06;;;;;;;4.18;2.50;;;17.10;76.10;;;17.17;60.64;94995.25;5050640;28;20298;-77
2021/08/20 01:42:33;;;;;;;2.88;2.40;;;17.20;76.20;;;17.19;60.31;94992.38;5049830;28;20763;-78
2021/08/20 01:45:00;;;;;;;3.05;2.75;;;17.20;76.10;;;17.21;60.36;94991.09;5016898;28;20690;-78
2021/08/20 01:47:29;;;;;;;3.53;2.58;;;17.20;76.20;;;17.24;60.76;94998.59;5017244;28;20200;-78
2021/08/20 01:49:57;;;;;;;5.38;2.70;;;17.30;76.30;;;17.27;60.90;94989.34;5033598;28;20234;-78
2021/08/20 01:52:24;;;;;;;3.40;2.45;;;17.40;76.50;;;17.29;60.51;94997.91;5026583;28;20288;-78
2021/08/20 01:54:51;;;;;;;3.25;2.50;;;17.30;76.10;;;17.31;60.67;94995.00;5001393;28;20575;-77
2021/08/20 01:57:18;;;;;;;2.60;2.40;;;17.30;76.10;;;17.31;60.41;94993.19;4999788;28;20200;-78
2021/08/20 01:59:47;;;;;;;2.90;2.60;;;17.30;76.10;;;17.33;59.96;94992.94;5000195;28;20692;-78
2021/08/20 02:02:16;;;;;;;2.90;2.70;;;17.30;76.00;;;17.33;60.46;94985.78;5034835;28;20273;-78
2021/08/20 02:04:43;;;;;;;3.40;2.67;;;17.40;76.00;;;17.32;60.79;94986.84;5017210;28;20200;-78
2021/08/20 02:07:10;;;;;;;4.88;3.50;;;17.40;75.90;;;17.33;60.15;94985.78;5033447;28;20558;-78
2021/08/20 02:09:40;;;;;;;3.35;2.72;;;17.40;75.90;;;17.34;60.61;94989.25;5033946;28;20226;-78
2021/08/20 02:12:08;;;;;;;3.20;2.75;;;17.40;75.80;;;17.34;60.32;94984.75;5018203;28;20584;-78
2021/08/20 02:14:47;;;;;;;3.60;2.88;;;17.40;75.80;;;17.35;60.23;94988.22;5037818;28;20286;-78
2021/08/20 02:17:15;;;;;;;3.50;2.83;;;17.40;75.80;;;17.35;60.41;94985.56;5020568;28;20204;-77
2021/08/20 02:19:42;;;;;;;4.60;2.92;;;17.40;75.80;;;17.34;60.11;94986.59;5045372;28;20196;-76
2021/08/20 02:22:10;;;;;;;3.10;2.80;;;17.40;75.80;;;17.34;60.39;94991.91;5024849;28;20234;-76
2021/08/20 02:24:45;;;;;;;3.20;2.90;;;17.40;75.80;;;17.29;60.16;94979.34;5026414;28;20654;-77
2021/08/20 02:27:13;;;;;;;2.78;2.38;;;17.40;75.80;;;17.30;60.63;94978.31;5026031;28;20238;-77
2021/08/20 02:29:40;;;;;;;3.50;2.58;;;17.40;75.80;;;17.30;60.56;94980.94;5025517;28;20195;-77
2021/08/20 02:32:08;;;;;;;3.58;2.55;;;17.40;75.80;;;17.31;60.30;94979.09;5026399;28;20202;-77
2021/08/20 02:34:35;;;;;;;2.60;2.40;;;17.40;76.00;;;17.32;60.30;94978.06;5043190;28;20192;-77
2021/08/20 02:37:02;;;;;;;2.80;2.50;;;17.40;76.00;;;17.31;60.86;94974.63;5043658;28;20200;-78
2021/08/20 02:39:33;;;;;;;3.03;2.50;;;17.40;76.10;;;17.33;60.44;94979.69;5022171;28;20235;-78
2021/08/20 02:42:01;;;;;;;3.03;2.30;;;17.40;76.00;;;17.34;60.31;94983.94;5016828;28;20226;-77
2021/08/20 02:44:28;;;;;;;3.83;2.67;;;17.40;76.10;;;17.33;60.64;94975.16;5017634;28;20560;-78
2021/08/20 02:46:56;;;;;;;3.60;2.80;;;17.40;76.10;;;17.31;60.46;94977.28;5016760;28;20208;-78
2021/08/20 02:49:23;;;;;;;2.88;2.67;;;17.40;76.00;;;17.27;60.77;94976.94;5016706;28;20189;-78
2021/08/20 02:51:51;;;;;;;2.78;2.55;;;17.40;76.10;;;17.26;60.93;94983.25;5000718;28;20592;-78
2021/08/20 02:54:23;;;;;;;4.13;2.67;;;17.50;76.20;;;17.21;61.16;94975.22;5002767;28;20192;-78
2021/08/20 02:56:51;;;;;;;2.80;2.50;;;17.40;76.90;;;17.21;60.46;94982.34;5032929;28;20228;-78
2021/08/20 02:59:20;;;;;;;2.88;2.65;;;17.30;75.90;;;17.18;60.51;94982.81;5032874;28;20204;-78
2021/08/20 03:01:52;;;;;;;3.78;2.50;;;17.30;75.90;;;17.13;60.85;94978.19;5032950;28;20223;-77
2021/08/20 03:04:20;;;;;;;2.72;2.53;;;17.30;75.80;;;17.09;60.84;94971.75;5009780;28;20295;-78
2021/08/20 03:06:48;;;;;;;3.10;2.80;;;17.30;75.80;;;17.02;60.88;94977.16;5036529;28;20211;-78
2021/08/20 03:09:32;;;;;;;3.25;2.40;;;17.30;75.80;;;16.93;60.47;94981.19;5024690;28;20249;-77
2021/08/20 03:12:00;;;;;;;3.90;2.80;;;17.20;75.60;;;16.85;60.47;94976.22;5036127;28;20200;-78
2021/08/20 03:14:32;;;;;;;2.85;2.65;;;17.10;75.60;;;16.73;60.78;94970.91;5035575;28;20188;-78
2021/08/20 03:17:00;;;;;;;3.00;2.70;;;17.10;75.50;;;16.62;60.99;94980.44;5036072;28;20677;-77
2021/08/20 03:19:29;;;;;;;4.68;2.45;;;17.00;75.40;;;16.49;60.90;94984.91;5036134;28;20286;-78
2021/08/20 03:21:56;;;;;;;3.88;2.58;;;16.90;75.50;;;16.39;61.19;94979.34;5035118;28;20233;-78
2021/08/20 03:24:25;;;;;;;11.02;5.53;;;16.90;75.30;;;16.29;61.13;94977.25;5016542;28;20192;-78
2021/08/20 03:26:53;;;;;;;17.08;8.10;;;16.80;75.40;;;16.20;61.12;94993.66;5031978;28;20232;-78
2021/08/20 03:29:20;;;;;;;7.97;5.25;;;16.60;75.20;;;16.09;61.26;94996.06;5015967;28;20192;-78
2021/08/20 03:32:17;;;;;;;4.20;3.40;;;16.60;75.40;;;15.94;61.22;94985.88;5019748;28;20326;-78
2021/08/20 03:34:48;;;;;;;4.82;3.20;;;16.40;75.20;;;15.87;61.11;94995.75;5034093;28;20192;-78
2021/08/20 03:37:15;;;;;;;3.58;2.83;;;16.40;75.30;;;15.78;60.97;94989.94;5050471;28;20437;-79
2021/08/20 03:39:45;;;;;;;2.95;2.65;;;16.30;75.30;;;15.69;61.20;94993.88;5017515;28;20657;-79
2021/08/20 03:42:16;;;;;;;3.92;2.83;;;16.20;75.30;;;15.62;61.36;94996.59;5027707;28;20221;-79
2021/08/20 03:45:05;;;;;;;4.95;2.60;;;16.10;75.30;;;15.55;60.79;94993.25;5047908;28;20226;-78
2021/08/20 03:47:35;;;;;;;5.95;2.50;;;16.00;75.40;;;15.47;61.26;94993.53;5045563;28;20206;-78
2021/08/20 03:50:06;;;;;;;2.42;2.20;;;16.00;75.40;;;15.40;61.28;94990.94;5033285;28;20707;-78
2021/08/20 03:52:36;;;;;;;2.55;2.35;;;15.80;75.30;;;15.32;61.27;94999.19;5014329;28;20185;-79
2021/08/20 03:55:05;;;;;;;3.00;2.25;;;15.80;75.40;;;15.27;61.44;94993.72;5029711;28;20223;-79
2021/08/20 03:57:36;;;;;;;3.35;2.60;;;15.70;75.60;;;15.21;61.51;95001.50;5034383;28;20577;-78
2021/08/20 04:00:06;;;;;;;2.72;2.33;;;15.60;75.60;;;15.17;62.04;94996.88;5051370;28;20677;-78
2021/08/20 04:02:40;;;;;;;3.15;2.85;;;15.60;76.00;;;15.13;62.12;95003.63;5049967;28;20281;-78
2021/08/20 04:05:09;;;;;;;2.95;2.63;;;15.60;75.90;;;15.09;61.83;95008.53;5015017;28;20216;-79
2021/08/20 04:08:01;;;;;;;4.25;2.30;;;15.50;75.80;;;15.03;61.84;95006.78;5031804;28;20658;-77
2021/08/20 04:10:57;;;;;;;3.22;2.33;;;15.40;75.80;;;14.95;61.83;94999.13;5036105;28;20315;-78
2021/08/20 04:13:46;;;;;;;2.53;2.33;;;15.40;76.60;;;14.94;62.18;95013.34;5037598;28;20211;-79
2021/08/20 04:16:13;;;;;;;3.35;2.40;;;15.40;75.90;;;14.90;61.65;95015.59;5035283;28;20304;-78
2021/08/20 04:18:41;;;;;;;3.25;2.80;;;15.30;75.90;;;14.89;61.77;95014.81;5049655;28;20214;-79
2021/08/20 04:21:08;;;;;;;3.92;2.80;;;15.30;76.00;;;14.86;61.99;95015.22;5035024;28;20231;-79
2021/08/20 04:23:37;;;;;;;2.40;2.13;;;15.30;76.20;;;14.86;62.02;95017.06;5038177;28;20219;-78
2021/08/20 04:26:08;;;;;;;2.90;2.45;;;15.30;76.30;;;14.83;62.07;95015.69;5015982;28;20227;-78
2021/08/20 04:28:51;;;;;;;3.13;2.88;;;15.20;76.30;;;14.83;62.03;95015.69;5031766;28;20646;-79
2021/08/20 04:31:38;;;;;;;3.60;3.30;;;15.20;76.40;;;14.86;62.35;95017.06;5009467;28;20298;-79
2021/08/20 04:34:26;;;;;;;3.30;3.00;;;15.20;76.60;;;14.88;62.34;95012.41;5018756;28;20208;-79
2021/08/20 04:37:19;;;;;;;4.53;3.40;;;15.10;76.70;;;14.92;62.08;95010.94;5034184;28;20208;-79
2021/08/20 04:40:00;;;;;;;3.72;3.42;;;15.20;77.00;;;14.96;62.52;95000.75;5002553;28;20702;-78
2021/08/20 04:42:47;;;;;;;3.53;3.20;;;15.20;77.10;;;15.00;62.43;95000.09;5017466;28;20307;-79
2021/08/20 04:45:25;;;;;;;3.97;3.30;;;15.30;77.40;;;15.11;62.43;95005.69;5031948;28;20224;-78
2021/08/20 04:48:10;;;;;;;3.40;3.10;;;15.20;77.40;;;15.18;62.38;95006.41;5031934;28;20203;-79
2021/08/20 04:50:51;;;;;;;3.17;2.88;;;15.30;77.70;;;15.23;62.46;95001.28;5032920;28;20494;-78
2021/08/20 04:53:39;;;;;;;3.17;2.88;;;15.30;77.80;;;15.32;62.33;95001.84;5043835;28;20206;-78
2021/08/20 04:56:20;;;;;;;2.80;2.60;;;15.30;77.80;;;15.37;62.66;95005.41;5016809;28;20639;-78
2021/08/20 04:58:47;;;;;;;4.40;2.58;;;15.40;78.10;;;15.47;62.58;95009.41;5014857;28;20200;-78
2021/08/20 05:01:16;;;;;;;2.90;2.63;;;15.50;78.30;;;15.57;62.83;95011.53;5014785;28;20219;-78
2021/08/20 05:03:47;;;;;;;4.30;2.67;;;15.50;78.50;;;15.64;62.77;95012.25;5028024;28;20237;-78
2021/08/20 05:06:14;;;;;;;4.32;2.92;;;15.60;78.60;;;15.71;63.00;95007.72;5016767;28;20216;-78
2021/08/20 05:08:41;;;;;;;6.38;3.08;;;15.60;78.60;;;15.80;63.25;95016.94;5014482;28;20677;-78
2021/08/20 05:11:10;;;;;;;24.80;4.78;;;15.70;78.60;;;15.89;62.67;95016.66;5014538;28;20307;-79
2021/08/20 05:13:37;;;;;;;8.50;3.15;;;15.80;78.70;;;15.96;62.62;95023.47;5021560;28;20209;-78
2021/08/20 05:16:05;;;;;;;3.88;2.85;;;15.80;78.70;;;16.05;62.62;95026.66;5018182;28;20207;-79
2021/08/20 05:18:32;;;;;;;3.42;2.60;;;15.90;78.80;;;16.13;63.09;95017.59;5034330;28;20199;-80
2021/08/20 05:21:00;;;;;;;2.90;2.58;;;16.00;78.80;;;16.21;63.09;95017.28;5034269;28;20264;-79
2021/08/20 05:23:27;;;;;;;2.80;2.60;;;16.10;78.90;;;16.31;62.80;95020.19;5031362;28;20257;-79
2021/08/20 05:25:54;;;;;;;2.70;2.50;;;16.20;79.00;;;16.41;63.21;95019.63;5014320;28;20315;-79
2021/08/20 05:28:21;;;;;;;3.50;2.90;;;16.30;79.10;;;16.48;62.82;95011.63;5016429;28;20230;-78
2021/08/20 05:30:49;;;;;;;3.05;2.72;;;16.30;79.10;;;16.62;62.94;95028.94;5047415;28;20303;-78
2021/08/20 05:33:16;;;;;;;3.28;2.90;;;16.50;79.20;;;16.75;62.94;95027.09;5033710;28;20199;-79
2021/08/20 05:35:46;;;;;;;2.80;2.50;;;16.50;79.20;;;16.83;62.61;95028.59;5017944;28;20323;-79
2021/08/20 05:38:16;;;;;;;3.13;2.80;;;16.60;79.30;;;16.97;62.86;95024.75;5032217;28;20192;-79
2021/08/20 05:40:44;;;;;;;2.72;2.50;;;16.70;79.40;;;17.09;62.55;95030.84;5030534;28;20246;-79
2021/08/20 05:43:11;;;;;;;2.95;2.65;;;16.80;79.30;;;17.20;62.61;95031.91;5020760;28;20219;-79
2021/08/20 05:45:38;;;;;;;2.83;2.58;;;16.90;79.20;;;17.33;62.95;95032.69;5047105;28;20220;-79
2021/08/20 05:48:07;;;;;;;3.03;2.83;;;17.00;79.30;;;17.46;62.73;95029.81;5030729;28;20200;-79
2021/08/20 05:50:35;;;;;;;3.55;2.70;;;17.10;79.10;;;17.60;62.72;95028.53;5033782;28;20307;-78
2021/08/20 05:53:03;;;;;;;3.33;3.03;;;17.20;79.30;;;17.74;62.44;95031.72;5035975;28;20315;-79
2021/08/20 05:55:33;;;;;;;12.68;3.20;;;17.40;79.20;;;17.89;62.62;95036.56;5053064;28;20215;-80
2021/08/20 05:58:04;;;;;;;5.13;3.15;;;17.50;79.30;;;18.02;62.17;95037.38;5038430;28;20191;-79
2021/08/20 06:00:32;;;;;;;2.78;2.55;;;17.60;79.30;;;18.13;62.27;95035.72;5020775;28;20269;-79
2021/08/20 06:03:05;;;;;;;3.28;2.92;;;17.80;79.20;;;18.24;62.50;95040.97;5026346;28;20226;-79
2021/08/20 06:05:34;;;;;;;3.55;3.25;;;17.80;79.30;;;18.32;62.33;95036.31;5037758;28;20230;-79
2021/08/20 06:08:01;;;;;;;5.25;3.47;;;17.90;79.30;;;18.44;62.09;95033.63;5037396;28;20218;-79
2021/08/20 06:10:29;;;;;;;8.48;3.28;;;18.10;79.50;;;18.53;62.63;95038.31;5028405;28;20207;-79
2021/08/20 06:12:57;;;;;;;3.35;3.00;;;18.10;79.40;;;18.63;62.35;95040.34;5050409;28;20266;-79
2021/08/20 06:15:24;;;;;;;3.17;2.88;;;18.30;79.40;;;18.71;62.34;95033.81;5051299;28;20269;-79
2021/08/20 06:17:51;;;;;;;6.93;2.97;;;18.40;79.40;;;18.83;62.34;95039.06;5053089;28;20208;-79
2021/08/20 06:20:18;;;;;;;5.05;2.88;;;18.40;79.20;;;18.93;62.21;95038.47;5020280;28;20231;-79
2021/08/20 06:22:45;;;;;;;5.07;3.03;;;18.50;79.00;;;19.00;62.09;95034.59;5046125;28;20212;-79
2021/08/20 06:25:12;;;;;;;3.55;3.03;;;18.70;79.00;;;19.11;61.82;95040.88;5017061;28;20706;-80
2021/08/20 06:27:39;;;;;;;8.02;3.20;;;18.70;78.70;;;19.19;62.11;95037.81;5033501;28;20202;-80
2021/08/20 06:30:07;;;;;;;3.72;3.38;;;18.80;78.70;;;19.27;61.00;95039.25;5017173;28;20640;-79
2021/08/20 06:32:34;;;;;;;3.33;3.00;;;18.90;78.00;;;19.35;61.00;95046.03;5035492;28;20199;-79
2021/08/20 06:35:01;;;;;;;3.10;2.80;;;19.00;77.80;;;19.47;60.56;95054.72;5050835;28;20251;-79
2021/08/20 06:37:28;;;;;;;2.85;2.65;;;19.10;77.80;;;19.58;60.33;95047.69;5036706;28;20193;-79
2021/08/20 06:39:55;;;;;;;3.50;2.70;;;19.10;77.60;;;19.70;60.47;95042.25;5054425;28;20637;-80
2021/08/20 06:42:23;;;;;;;2.80;2.60;;;19.20;77.50;;;19.81;60.37;95046.66;5035830;28;20191;-79
2021/08/20 06:44:50;;;;;;;3.67;2.80;;;19.30;77.70;;;19.94;60.49;95047.38;5053048;28;20618;-79
2021/08/20 06:47:18;;;;;;;3.15;2.85;;;19.50;77.50;;;20.05;59.78;95046.44;5036546;28;20438;-80
2021/08/20 06:49:46;;;;;;;5.63;3.20;;;19.60;77.60;;;20.17;59.32;95045.53;5051517;28;20203;-79
2021/08/20 06:52:13;;;;;;;3.92;3.00;;;19.70;76.90;;;20.22;58.80;95041.03;5017496;28;20211;-79
2021/08/20 06:54:40;;;;;;;3.03;2.75;;;19.80;76.60;;;20.39;59.21;95048.16;5032707;28;20200;-79
2021/08/20 06:57:07;;;;;;;4.35;2.90;;;19.90;76.70;;;20.46;58.54;95052.22;5033038;28;20191;-78
2021/08/20 06:59:34;;;;;;;9.85;3.25;;;20.00;76.50;;;20.56;58.80;95053.38;5022060;28;20286;-79
2021/08/20 07:02:01;;;;;;;3.00;2.70;;;20.10;76.30;;;20.63;58.92;95046.78;5030874;28;20203;-80
2021/08/20 07:04:29;;;;;;;3.22;2.92;;;20.20;76.10;;;20.75;58.30;95045.84;5031884;28;20260;-79
2021/08/20 07:06:56;;;;;;;3.45;2.58;;;20.30;75.90;;;20.88;58.44;95039.31;5031945;28;20196;-80
2021/08/20 07:09:24;;;;;;;7.05;3.75;;;20.40;76.10;;;21.01;58.90;95038.88;5039988;28;20599;-79
2021/08/20 07:11:52;;;;;;;4.22;2.80;;;20.50;76.30;;;21.17;58.46;95033.69;5053644;28;20831;-79
2021/08/20 07:14:19;;;;;;;3.20;2.90;;;20.60;76.10;;;21.35;58.06;95041.28;5032536;28;20223;-80
2021/08/20 07:16:46;;;;;;;2.70;2.50;;;20.70;75.70;;;21.51;57.78;95036.03;5031982;28;20423;-79
2021/08/20 07:19:13;;;;;;;3.10;2.80;;;20.90;75.80;;;21.67;57.49;95039.63;5032162;28;20622;-79
2021/08/20 07:21:41;;;;;;;11.50;3.38;;;21.00;75.70;;;21.82;57.65;95038.91;5032634;28;20208;-79
2021/08/20 07:24:08;;;;;;;3.53;3.03;;;21.20;75.80;;;21.93;55.91;95037.09;5030454;28;20473;-79
2021/08/20 07:26:35;;;;;;;3.28;2.45;;;21.30;75.00;;;21.99;56.08;95034.16;5036118;28;20586;-79
2021/08/20 07:29:03;;;;;;;2.65;2.35;;;21.40;74.20;;;22.05;56.34;95038.47;5042126;28;20188;-77
2021/08/20 07:31:30;;;;;;;3.03;2.45;;;21.50;74.30;;;22.11;55.88;95036.63;5035655;28;20317;-77
2021/08/20 07:33:59;;;;;;;2.65;2.45;;;21.60;75.00;;;22.18;55.92;95037.19;5035799;28;20293;-79
2021/08/20 07:36:26;;;;;;;2.65;2.30;;;21.70;74.10;;;22.23;56.06;95031.84;5015870;28;20223;-78
2021/08/20 07:38:53;;;;;;;3.33;2.50;;;21.70;73.90;;;22.29;55.82;95038.03;5048563;28;20614;-78
2021/08/20 07:41:20;;;;;;;2.75;2.30;;;21.90;74.10;;;22.33;54.98;95038.28;5045718;28;20216;-77
2021/08/20 07:43:47;;;;;;;4.55;2.55;;;21.90;73.40;;;22.38;55.47;95041.81;5017836;28;20216;-79
2021/08/20 07:46:14;;;;;;;4.30;2.58;;;21.90;73.10;;;22.43;55.21;95046.34;5034641;28;20222;-78
2021/08/20 07:48:42;;;;;;;2.70;2.38;;;22.00;73.20;;;22.48;55.10;95042.91;5024683;28;20198;-78
2021/08/20 07:51:09;;;;;;;4.35;2.50;;;22.10;73.00;;;22.52;55.31;95042.13;5033444;28;20220;-77
2021/08/20 07:53:36;;;;;;;2.20;2.10;;;22.10;73.10;;;22.58;55.28;95044.78;5032244;28;20565;-78
2021/08/20 07:56:05;;;;;;;2.50;2.30;;;22.20;73.20;;;22.61;55.03;95044.28;5038699;28;20226;-78
2021/08/20 07:58:32;;;;;;;4.10;2.47;;;22.20;72.90;;;22.68;55.37;95042.94;5039941;28;20223;-79
2021/08/20 08:00:59;;;;;;;3.47;2.25;;;22.30;73.30;;;22.77;55.15;95043.22;5031889;28;20210;-78
2021/08/20 08:03:28;;;;;;;2.60;2.40;;;22.30;73.00;;;22.88;55.00;95041.34;4999129;28;20331;-81
2021/08/20 08:05:56;;;;;;;2.22;2.03;;;22.40;73.10;;;22.96;54.97;95042.69;5031776;28;20258;-78
2021/08/20 08:08:23;;;;;;;4.97;2.13;;;22.40;72.30;;;23.02;54.02;95030.91;5021168;28;20295;-79
2021/08/20 08:10:50;;;;;;;2.83;2.10;;;22.50;72.30;;;23.08;54.58;95031.72;5016389;28;20670;-78
2021/08/20 08:13:17;;;;;;;2.15;1.92;;;22.50;72.30;;;23.14;54.16;95027.97;5045786;28;20203;-79
2021/08/20 08:15:44;;;;;;;2.22;2.03;;;22.60;72.10;;;23.17;54.12;95028.28;5050652;28;20307;-78
2021/08/20 08:18:12;;;;;;;2.20;2.00;;;22.70;72.10;;;23.20;52.83;95026.16;5015992;28;20200;-79
2021/08/20 08:20:39;;;;;;;2.05;1.80;;;22.70;70.70;;;23.20;51.99;95034.97;5032840;28;20295;-79
2021/08/20 08:23:07;;;;;;;2.30;2.10;;;22.70;70.30;;;23.19;52.09;95028.00;5015124;28;20601;-79
2021/08/20 08:25:35;;;;;;;1.77;1.67;;;22.80;70.30;;;23.21;52.86;95031.22;5001355;28;20624;-79
2021/08/20 08:28:03;;;;;;;1.70;1.60;;;22.80;70.50;;;23.25;52.13;95032.28;5033972;28;20274;-79
2021/08/20 08:30:40;;;;;;;1.70;1.60;;;22.80;70.20;;;23.28;52.58;95025.59;5051324;28;20226;-80
2021/08/20 08:33:09;;;;;;;2.22;1.85;;;22.80;70.20;;;23.32;52.18;95026.66;5051157;28;20259;-80
2021/08/20 08:35:46;;;;;;;2.00;1.90;;;22.80;70.00;;;23.35;52.37;95036.81;5034237;28;20211;-79
2021/08/20 08:38:15;;;;;;;2.10;1.90;;;22.90;70.50;;;23.36;51.14;95035.75;5051636;28;20232;-80
2021/08/20 08:40:46;;;;;;;2.10;1.83;;;22.90;69.30;;;23.42;51.50;95032.00;5041081;28;20326;-79
2021/08/20 08:43:15;;;;;;;1.50;1.40;;;23.00;69.80;;;23.47;51.90;95037.34;5031227;28;20295;-80
2021/08/20 08:45:43;;;;;;;1.80;1.50;;;23.00;70.00;;;23.49;50.89;95031.72;5014558;28;20334;-80
2021/08/20 08:48:13;;;;;;;1.90;1.63;;;23.00;69.10;;;23.57;50.69;95036.53;5031491;28;20295;-80
2021/08/20 08:50:46;;;;;;;1.65;1.55;;;23.00;68.90;;;23.64;50.40;95037.06;5031156;28;20281;-80
2021/08/20 08:53:14;;;;;;;1.45;1.35;;;23.10;68.80;;;23.70;49.56;95037.81;5014759;28;20224;-80
2021/08/20 08:55:56;;;;;;;2.53;1.70;;;23.20;68.30;;;23.75;49.69;95045.84;5017045;28;20713;-81
2021/08/20 08:58:23;;;;;;;1.73;1.63;;;23.20;68.50;;;23.78;48.34;95034.59;5024742;28;20202;-79
2021/08/20 09:00:50;;;;;;;1.67;1.58;;;23.30;67.30;;;23.85;46.32;95044.22;5015570;28;20743;-80
2021/08/20 09:03:30;;;;;;;1.58;1.40;;;23.30;66.10;;;23.98;48.02;95035.63;5014629;28;20641;-80
2021/08/20 09:05:59;;;;;;;3.13;1.80;;;23.40;66.30;;;24.13;48.19;95040.13;5031020;28;20233;-79
2021/08/20 09:08:27;;;;;;;1.50;1.40;;;23.50;67.20;;;24.28;47.89;95047.31;5029223;28;20204;-81
2021/08/20 09:11:00;;;;;;;3.30;1.60;;;23.60;66.80;;;24.43;47.73;95047.22;5036910;28;20219;-81
2021/08/20 09:13:30;;;;;;;2.33;1.63;;;23.70;66.40;;;24.60;47.03;95049.53;5018795;28;20192;-80
2021/08/20 09:16:13;;;;;;;1.98;1.55;;;23.80;66.40;;;24.73;47.32;95037.44;5014524;28;20216;-81
2021/08/20 09:18:42;;;;;;;1.70;1.50;;;24.00;66.70;;;24.92;47.67;95044.81;5028660;28;20262;-80
2021/08/20 09:21:15;;;;;;;3.22;1.60;;;24.10;66.70;;;25.13;47.49;95033.91;5029701;28;20569;-80
2021/08/20 09:23:43;;;;;;;1.58;1.48;;;24.30;66.10;;;25.32;46.80;95028.66;5013808;28;20208;-82
2021/08/20 09:26:10;;;;;;;3.22;1.52;;;24.50;66.60;;;25.57;45.83;95041.03;5034473;28;20228;-81
2021/08/20 09:28:37;;;;;;;1.98;1.70;;;24.60;65.80;;;25.83;45.02;95030.03;5048225;28;20280;-81
2021/08/20 09:31:11;;;;;;;5.90;1.50;;;24.80;65.10;;;26.10;45.22;95026.81;5038195;28;20616;-81
2021/08/20 09:33:44;;;;;;;1.42;1.33;;;25.00;64.80;;;26.38;44.73;95040.44;5016090;28;20202;-81
2021/08/20 09:36:21;;;;;;;1.60;1.50;;;25.20;65.10;;;26.57;44.08;95032.38;5045912;28;20225;-81
2021/08/20 09:38:57;;;;;;;2.08;1.40;;;25.50;64.70;;;26.74;44.39;95031.84;5021813;28;20289;-81
2021/08/20 09:41:31;;;;;;;1.67;1.55;;;25.70;64.30;;;26.91;44.50;95023.28;5054000;28;20222;-82
2021/08/20 09:44:05;;;;;;;1.50;1.40;;;25.90;64.50;;;27.13;43.98;95027.25;5038275;28;20314;-82
2021/08/20 09:46:52;;;;;;;1.65;1.55;;;26.10;64.20;;;27.28;43.18;95020.81;5038564;28;20671;-82
2021/08/20 09:49:19;;;;;;;1.42;1.33;;;26.30;63.40;;;27.45;42.43;95017.59;5017848;28;20205;-81
2021/08/20 09:51:49;;;;;;;1.73;1.50;;;26.50;62.80;;;27.48;41.15;95025.88;5017690;28;20390;-80
2021/08/20 09:54:23;;;;;;;1.50;1.40;;;26.60;62.00;;;27.53;42.17;95018.81;5034232;28;20196;-81
2021/08/20 09:57:00;;;;;;;1.70;1.60;;;26.70;62.20;;;27.54;40.25;95018.50;5007843;28;20238;-81
2021/08/20 09:59:33;;;;;;;1.50;1.40;;;26.80;61.10;;;27.63;42.22;95026.69;5033728;28;20246;-81
2021/08/20 10:02:01;;;;;;;1.92;1.65;;;26.90;62.20;;;27.71;41.08;95026.00;5018518;28;20193;-81
2021/08/20 10:04:34;;;;;;;1.77;1.67;;;27.00;61.60;;;27.76;41.33;95023.22;5002887;28;20809;-81
2021/08/20 10:07:02;;;;;;;1.48;1.38;;;27.10;60.90;;;27.83;41.34;95022.00;5021582;28;20193;-81
2021/08/20 10:09:30;;;;;;;8.45;2.50;;;27.10;61.00;;;27.88;41.15;95022.72;5020776;28;20207;-82
2021/08/20 10:12:01;;;;;;;7.60;2.00;;;27.20;61.00;;;27.98;41.59;95021.72;5054214;28;20209;-81
2021/08/20 10:14:31;;;;;;;1.90;1.70;;;27.30;61.10;;;28.08;40.39;95023.44;5016877;28;20228;-81
2021/08/20 10:16:58;;;;;;;1.85;1.70;;;27.30;60.30;;;28.10;39.70;95021.25;5018014;28;20245;-81
2021/08/20 10:19:26;;;;;;;2.03;1.88;;;27.40;60.00;;;28.04;38.60;95020.53;5035071;28;20195;-81
2021/08/20 10:21:54;;;;;;;1.75;1.40;;;27.40;58.80;;;28.01;39.24;95013.03;5023370;28;20224;-81
2021/08/20 10:24:21;;;;;;;4.80;1.67;;;27.40;58.80;;;27.97;39.32;95017.44;5023312;28;20242;-82
2021/08/20 10:26:55;;;;;;;2.88;1.70;;;27.50;59.30;;;28.00;39.57;95024.91;5039889;28;20219;-81
2021/08/20 10:29:28;;;;;;;2.08;1.50;;;27.50;59.70;;;28.02;39.50;95020.00;5036929;28;20266;-81
2021/08/20 10:32:05;;;;;;;4.43;1.80;;;27.50;59.60;;;28.01;39.07;95026.50;5033510;28;20250;-81